createdAt,value
2022-09-15T00:03:09.346Z,99003.72
2022-09-15T00:08:12.974Z,98995.25
2022-09-15T00:13:14.479Z,98996.09
2022-09-15T00:18:16.582Z,98993.59
2022-09-15T00:23:18.156Z,98995.88
2022-09-15T00:28:22.221Z,98984.84
2022-09-15T00:33:23.629Z,99001.00
2022-09-15T00:38:24.977Z,98991.72
2022-09-15T00:43:41.552Z,98989.44
2022-09-15T00:49:11.874Z,98975.09
2022-09-15T00:54:17.575Z,98987.78
2022-09-15T00:59:23.056Z,98975.75
2022-09-15T01:04:24.509Z,98985.06
2022-09-15T01:09:36.112Z,98991.47
2022-09-15T01:14:37.354Z,98980.06
2022-09-15T01:20:06.566Z,98981.50
2022-09-15T01:25:47.989Z,98992.28
2022-09-15T01:31:07.421Z,98992.06
2022-09-15T01:36:15.841Z,98989.56
2022-09-15T01:41:39.499Z,98989.16
2022-09-15T01:46:47.747Z,98995.97
2022-09-15T01:51:52.168Z,98992.88
2022-09-15T01:56:53.480Z,98981.88
2022-09-15T02:02:07.219Z,98990.56
2022-09-15T02:07:14.352Z,98988.47
2022-09-15T02:12:42.275Z,98987.66
2022-09-15T02:17:53.990Z,98988.03
2022-09-15T02:22:57.170Z,98985.13
2022-09-15T02:28:04.433Z,98977.47
2022-09-15T02:33:10.708Z,98996.28
2022-09-15T02:38:12.800Z,98990.69
2022-09-15T02:43:17.414Z,99004.75
2022-09-15T02:48:18.767Z,98992.50
2022-09-15T02:53:20.011Z,98995.81
2022-09-15T02:58:21.293Z,99001.59
2022-09-15T03:03:22.863Z,99009.25
2022-09-15T03:08:24.139Z,99009.00
2022-09-15T03:13:25.395Z,99013.16
2022-09-15T03:18:26.666Z,99016.66
2022-09-15T03:23:27.957Z,99033.63
2022-09-15T03:28:29.908Z,99035.44
2022-09-15T03:33:31.704Z,99029.44
2022-09-15T03:38:33.073Z,99025.44
2022-09-15T03:43:35.473Z,99023.16
2022-09-15T03:48:37.885Z,99029.75
2022-09-15T03:53:41.211Z,99039.81
2022-09-15T03:58:42.479Z,99051.03
2022-09-15T04:03:48.871Z,99056.66
2022-09-15T04:08:53.101Z,99056.88
2022-09-15T04:13:54.792Z,99061.44
2022-09-15T04:18:56.283Z,99066.38
2022-09-15T04:23:57.692Z,99069.28
2022-09-15T04:29:03.950Z,99071.88
2022-09-15T04:34:06.149Z,99081.56
2022-09-15T04:39:07.429Z,99081.91
2022-09-15T04:44:08.732Z,99075.34
2022-09-15T04:49:10.046Z,99072.78
2022-09-15T04:54:11.320Z,99078.09
2022-09-15T04:59:15.494Z,99088.50
2022-09-15T05:04:16.761Z,99094.09
2022-09-15T05:09:18.024Z,99089.88
2022-09-15T05:14:19.312Z,99102.16
2022-09-15T05:19:20.640Z,99104.78
2022-09-15T05:24:22.314Z,99101.75
2022-09-15T05:29:23.827Z,99114.78
2022-09-15T05:34:25.183Z,99124.13
2022-09-15T05:39:26.870Z,99136.97
2022-09-15T05:44:28.742Z,99132.41
2022-09-15T05:49:30.432Z,99136.59
2022-09-15T05:54:31.765Z,99148.16
2022-09-15T05:59:35.888Z,99159.25
2022-09-15T06:04:37.392Z,99165.44
2022-09-15T06:09:39.362Z,99175.50
2022-09-15T06:14:43.237Z,99165.31
2022-09-15T06:19:44.463Z,99175.41
2022-09-15T06:24:46.027Z,99177.31
2022-09-15T06:29:47.417Z,99179.88
2022-09-15T06:34:48.726Z,99187.09
2022-09-15T06:39:50.125Z,99202.13
2022-09-15T06:44:51.574Z,99204.22
2022-09-15T06:49:54.669Z,99205.50
2022-09-15T06:54:57.193Z,99201.03
2022-09-15T06:59:58.486Z,99212.91
2022-09-15T07:04:59.954Z,99210.47
2022-09-15T07:10:02.343Z,99208.66
2022-09-15T07:15:04.081Z,99218.25
2022-09-15T07:20:05.989Z,99219.16
2022-09-15T07:25:07.736Z,99228.13
2022-09-15T07:30:10.314Z,99232.09
2022-09-15T07:35:11.649Z,99240.28
2022-09-15T07:40:13.260Z,99249.41
2022-09-15T07:45:15.114Z,99242.03
2022-09-15T07:50:16.613Z,99253.31
2022-09-15T07:55:18.327Z,99266.66
2022-09-15T08:00:19.661Z,99264.66
2022-09-15T08:05:21.823Z,99273.25
2022-09-15T08:10:25.078Z,99272.88
2022-09-15T08:15:26.419Z,99285.75
2022-09-15T08:20:27.701Z,99295.53
2022-09-15T08:25:30.079Z,99294.50
2022-09-15T08:30:31.983Z,99305.84
2022-09-15T08:35:34.248Z,99320.19
2022-09-15T08:40:37.855Z,99320.81
2022-09-15T08:45:54.862Z,99329.91
2022-09-15T08:50:59.715Z,99336.63
2022-09-15T08:56:11.200Z,99330.06
2022-09-15T09:01:32.768Z,99327.28
2022-09-15T09:07:09.136Z,99320.31
2022-09-15T09:12:32.393Z,99330.47
2022-09-15T09:18:11.542Z,99331.53
2022-09-15T09:23:17.777Z,99330.28
2022-09-15T09:28:37.483Z,99329.38
2022-09-15T09:33:47.835Z,99332.78
2022-09-15T09:38:50.285Z,99330.59
2022-09-15T09:43:54.833Z,99324.09
2022-09-15T09:49:02.730Z,99333.41
2022-09-15T09:54:12.603Z,99343.59
2022-09-15T09:59:42.122Z,99335.84
2022-09-15T10:04:49.142Z,99326.41
2022-09-15T10:09:56.445Z,99329.94
2022-09-15T10:15:02.033Z,99324.53
2022-09-15T10:20:06.726Z,99323.50
2022-09-15T10:25:20.137Z,99321.81
2022-09-15T10:30:22.102Z,99318.25
2022-09-15T10:35:23.394Z,99318.41
2022-09-15T10:40:37.949Z,99317.34
2022-09-15T10:45:43.310Z,99328.28
2022-09-15T10:50:58.649Z,99322.13
2022-09-15T10:56:20.966Z,99330.94
2022-09-15T11:01:36.599Z,99321.47
2022-09-15T11:07:08.937Z,99320.22
2022-09-15T11:12:19.461Z,99329.19
2022-09-15T11:17:47.705Z,99325.81
2022-09-15T11:22:59.766Z,99332.63
2022-09-15T11:28:20.017Z,99343.44
2022-09-15T11:33:29.664Z,99342.22
2022-09-15T11:38:30.873Z,99358.50
2022-09-15T11:43:37.434Z,99354.38
2022-09-15T11:48:53.094Z,99353.56
2022-09-15T11:54:13.590Z,99355.00
2022-09-15T11:59:25.823Z,99349.31
2022-09-15T12:04:32.811Z,99349.47
2022-09-15T12:09:34.231Z,99347.66
2022-09-15T12:14:38.728Z,99347.59
2022-09-15T12:19:57.989Z,99337.97
2022-09-15T12:25:06.480Z,99333.25
2022-09-15T12:30:38.268Z,99334.25
2022-09-15T12:35:39.534Z,99340.84
2022-09-15T12:40:41.752Z,99340.16
2022-09-15T12:45:54.034Z,99352.25
2022-09-15T12:50:59.921Z,99358.59
2022-09-15T12:56:07.153Z,99366.38
2022-09-15T13:01:26.949Z,99373.09
2022-09-15T13:06:30.705Z,99373.91
2022-09-15T13:11:36.749Z,99374.31
2022-09-15T13:16:44.026Z,99375.97
2022-09-15T13:21:53.789Z,99372.59
2022-09-15T13:26:56.213Z,99379.44
2022-09-15T13:32:15.693Z,99367.16
2022-09-15T13:38:12.156Z,99366.59
2022-09-15T13:43:53.158Z,99354.50
2022-09-15T13:49:13.793Z,99356.19
2022-09-15T13:54:18.954Z,99367.34
2022-09-15T13:59:25.332Z,99361.53
2022-09-15T14:04:30.640Z,99352.81
2022-09-15T14:09:44.530Z,99360.50
2022-09-15T14:14:51.362Z,99368.19
2022-09-15T14:19:55.901Z,99360.78
2022-09-15T14:24:59.123Z,99362.63
2022-09-15T14:30:09.188Z,99350.66
2022-09-15T14:35:19.778Z,99355.34
2022-09-15T14:40:30.771Z,99362.06
2022-09-15T14:51:14.678Z,99348.78
2022-09-15T14:56:23.093Z,99346.63
2022-09-15T15:01:26.658Z,99341.66
2022-09-15T15:06:54.293Z,99350.66
2022-09-15T15:12:02.305Z,99346.38
2022-09-15T15:17:05.899Z,99344.28
2022-09-15T15:22:25.967Z,99348.47
2022-09-15T15:27:37.619Z,99352.50
2022-09-15T15:32:42.645Z,99338.16
2022-09-15T15:37:44.105Z,99347.31
2022-09-15T15:42:56.499Z,99350.00
2022-09-15T15:48:02.949Z,99363.94
2022-09-15T15:53:04.217Z,99362.47
2022-09-15T15:58:06.212Z,99363.09
2022-09-15T16:03:09.122Z,99364.16
2022-09-15T16:08:22.736Z,99369.50
2022-09-15T16:13:25.130Z,99367.56
2022-09-15T16:18:27.215Z,99368.84
2022-09-15T16:23:28.546Z,99371.75
2022-09-15T16:28:30.073Z,99365.03
2022-09-15T16:33:34.677Z,99388.31
2022-09-15T16:38:40.150Z,99374.97
2022-09-15T16:43:41.966Z,99385.16
2022-09-15T16:48:44.097Z,99389.06
2022-09-15T16:53:48.281Z,99376.19
2022-09-15T16:58:49.524Z,99372.81
2022-09-15T17:03:50.906Z,99386.25
2022-09-15T17:08:52.293Z,99379.00
2022-09-15T17:13:53.797Z,99384.13
2022-09-15T17:18:55.235Z,99382.44
2022-09-15T17:23:56.477Z,99382.44
2022-09-15T17:28:58.230Z,99379.13
2022-09-15T17:34:00.906Z,99387.22
2022-09-15T17:39:02.189Z,99388.50
2022-09-15T17:44:03.425Z,99395.78
2022-09-15T17:49:04.680Z,99398.47
2022-09-15T17:54:07.296Z,99398.09
2022-09-15T17:59:11.850Z,99401.19
2022-09-15T18:04:15.529Z,99412.75
2022-09-15T18:09:17.568Z,99412.75
2022-09-15T18:14:18.908Z,99421.59
2022-09-15T18:19:20.317Z,99427.16
2022-09-15T18:24:21.633Z,99441.81
2022-09-15T18:29:22.949Z,99441.81
2022-09-15T18:34:24.478Z,99452.47
2022-09-15T18:39:25.907Z,99464.53
2022-09-15T18:44:27.173Z,99463.16
2022-09-15T18:49:28.459Z,99486.09
2022-09-15T18:54:29.808Z,99496.16
2022-09-15T18:59:31.095Z,99494.56
2022-09-15T19:04:36.096Z,99485.19
2022-09-15T19:09:39.953Z,99469.91
2022-09-15T19:14:45.935Z,99476.34
2022-09-15T19:19:48.101Z,99478.13
2022-09-15T19:24:49.411Z,99472.22
2022-09-15T19:29:50.934Z,99491.34
2022-09-15T19:34:52.259Z,99493.69
2022-09-15T19:39:54.619Z,99496.22
2022-09-15T19:44:55.945Z,99492.50
2022-09-15T19:49:57.219Z,99488.22
2022-09-15T19:54:58.663Z,99494.88
2022-09-15T20:00:00.104Z,99502.31
2022-09-15T20:05:01.514Z,99497.16
2022-09-15T20:10:03.736Z,99492.56
2022-09-15T20:15:05.798Z,99495.69
2022-09-15T20:20:07.588Z,99494.84
2022-09-15T20:25:08.890Z,99501.53
2022-09-15T20:30:10.513Z,99501.63
2022-09-15T20:35:12.599Z,99505.97
2022-09-15T20:40:13.918Z,99505.50
2022-09-15T20:45:15.486Z,99511.75
2022-09-15T20:50:17.073Z,99524.09
2022-09-15T20:55:19.012Z,99525.09
2022-09-15T21:00:20.304Z,99526.22
2022-09-15T21:05:21.592Z,99518.69
2022-09-15T21:10:24.325Z,99527.41
2022-09-15T21:15:27.515Z,99513.78
2022-09-15T21:20:28.950Z,99512.38
2022-09-15T21:25:30.191Z,99526.84
2022-09-15T21:30:31.437Z,99526.09
2022-09-15T21:35:33.436Z,99526.38
2022-09-15T21:40:34.965Z,99546.78
2022-09-15T21:45:37.015Z,99549.84
2022-09-15T21:50:38.335Z,99539.78
2022-09-15T21:55:39.552Z,99548.03
2022-09-15T22:00:43.402Z,99559.84
2022-09-15T22:05:46.685Z,99558.16
2022-09-15T22:10:47.943Z,99554.03
2022-09-15T22:15:49.202Z,99548.28
2022-09-15T22:20:52.256Z,99560.22
2022-09-15T22:25:53.516Z,99550.13
2022-09-15T22:31:03.703Z,99556.34
2022-09-15T22:36:06.146Z,99560.03
2022-09-15T22:41:10.120Z,99554.84
2022-09-15T22:46:11.699Z,99554.84
2022-09-15T22:51:14.530Z,99558.34
2022-09-15T22:56:20.578Z,99557.25
2022-09-15T23:01:27.859Z,99553.91
2022-09-15T23:06:32.194Z,99566.03
2022-09-15T23:11:34.416Z,99567.66
2022-09-15T23:16:35.974Z,99568.25
2022-09-15T23:21:37.331Z,99565.56
2022-09-15T23:26:38.739Z,99568.00
2022-09-15T23:31:40.148Z,99571.63
2022-09-15T23:36:41.592Z,99558.31
2022-09-15T23:41:43.467Z,99566.16
2022-09-15T23:46:44.904Z,99564.00
2022-09-15T23:51:46.462Z,99564.72
2022-09-15T23:56:47.805Z,99565.09
